Time;durP1;ratioP1;P1;durP2;ratioP2;P2;SDS_P1;SDS_P2;PMS_P1;PMS_P2;Temp;Humidity;BMP_temperature;BMP_pressure;BME280_temperature;BME280_humidity;BME280_pressure;Samples;Min_cycle;Max_cycle;Signal;HPM_P1;HPM_P2
2022/07/07 00:01:58;;;;;;;3.35;1.50;;;23.00;46.50;;;;;;5029155;28;20044;-50
2022/07/07 00:04:25;;;;;;;2.08;1.10;;;23.00;46.50;;;;;;5020201;28;20049;-45
2022/07/07 00:06:59;;;;;;;3.90;1.10;;;23.00;46.70;;;;;;5023664;28;20455;-45
2022/07/07 00:09:30;;;;;;;2.00;1.35;;;23.00;46.90;;;;;;5024714;28;20120;-45
2022/07/07 00:11:58;;;;;;;3.45;1.65;;;23.00;47.10;;;;;;5032361;28;20087;-48
2022/07/07 00:14:24;;;;;;;3.08;1.38;;;22.90;47.10;;;;;;5009450;28;20084;-49
2022/07/07 00:16:52;;;;;;;1.80;1.70;;;23.00;47.40;;;;;;5008702;28;20038;-46
2022/07/07 00:19:21;;;;;;;3.72;2.00;;;22.90;47.50;;;;;;5011843;28;20038;-50
2022/07/07 00:21:47;;;;;;;2.00;1.52;;;22.90;47.70;;;;;;4994945;28;20487;-48
2022/07/07 00:24:14;;;;;;;2.55;2.00;;;22.90;47.80;;;;;;5011141;28;20056;-49
2022/07/07 00:26:45;;;;;;;3.50;2.30;;;22.80;48.00;;;;;;5022256;28;20135;-46
2022/07/07 00:29:14;;;;;;;2.42;1.98;;;22.80;48.40;;;;;;5022658;28;20037;-50
2022/07/07 00:31:41;;;;;;;4.22;1.85;;;22.80;48.40;;;;;;5032138;28;20099;-45
2022/07/07 00:34:08;;;;;;;4.55;2.10;;;22.80;48.50;;;;;;5020965;28;20047;-48
2022/07/07 00:36:39;;;;;;;3.13;2.10;;;22.80;48.80;;;;;;5020354;28;20037;-46
2022/07/07 00:39:10;;;;;;;;;;;22.80;48.80;;;;;;5023366;28;20061;-44
2022/07/07 00:41:37;;;;;;;2.83;1.42;;;22.80;47.90;;;;;;5031410;28;19921;-46
2022/07/07 00:44:06;;;;;;;2.13;1.90;;;22.80;48.40;;;;;;5016354;28;20046;-45
2022/07/07 00:46:45;;;;;;;1.88;1.75;;;22.80;48.80;;;;;;5017703;28;20069;-45
2022/07/07 00:49:16;;;;;;;2.70;1.90;;;22.70;49.40;;;;;;5022975;28;20041;-47
2022/07/07 00:51:43;;;;;;;1.98;1.65;;;22.70;49.30;;;;;;5026823;28;20052;-46
2022/07/07 00:54:11;;;;;;;3.13;1.55;;;22.70;49.20;;;;;;5006428;28;20042;-49
2022/07/07 00:56:39;;;;;;;2.30;1.65;;;22.70;49.50;;;;;;5001403;28;20502;-47
2022/07/07 00:59:08;;;;;;;2.55;1.70;;;22.70;49.60;;;;;;5029004;28;20042;-49
2022/07/07 01:01:38;;;;;;;1.90;1.45;;;22.70;49.70;;;;;;5027371;28;20386;-45
2022/07/07 01:04:11;;;;;;;1.60;1.50;;;22.60;49.80;;;;;;5011909;28;20392;-46
2022/07/07 01:06:43;;;;;;;1.70;1.33;;;22.70;50.10;;;;;;5022621;28;20076;-45
2022/07/07 01:09:11;;;;;;;2.13;1.52;;;22.60;49.80;;;;;;5030760;28;20041;-48
2022/07/07 01:11:54;;;;;;;1.45;1.23;;;22.60;49.90;;;;;;5013210;28;20448;-43
2022/07/07 01:14:25;;;;;;;4.72;2.20;;;22.60;50.30;;;;;;5019425;28;20121;-47
2022/07/07 01:16:54;;;;;;;2.50;1.23;;;22.60;50.10;;;;;;5026672;28;20079;-44
2022/07/07 01:19:22;;;;;;;1.63;1.40;;;22.50;50.10;;;;;;5030028;28;20471;-47
2022/07/07 01:22:00;;;;;;;1.92;1.70;;;22.50;50.30;;;;;;5013374;28;20052;-44
2022/07/07 01:24:30;;;;;;;2.45;1.80;;;22.50;50.80;;;;;;5018287;28;20037;-47
2022/07/07 01:27:05;;;;;;;1.95;1.45;;;22.50;50.50;;;;;;5027885;28;20045;-48
2022/07/07 01:29:43;;;;;;;4.38;2.40;;;22.50;51.20;;;;;;5019524;28;20112;-47
2022/07/07 01:32:12;;;;;;;8.27;1.38;;;22.40;51.20;;;;;;5013623;28;20042;-44
2022/07/07 01:34:40;;;;;;;2.92;2.10;;;22.40;50.90;;;;;;5022641;28;20083;-48
2022/07/07 01:37:10;;;;;;;2.65;1.50;;;22.40;51.00;;;;;;5030451;28;20483;-48
2022/07/07 01:39:38;;;;;;;1.80;1.70;;;22.30;51.40;;;;;;5016654;28;20038;-46
2022/07/07 01:42:06;;;;;;;3.35;1.60;;;22.30;51.30;;;;;;5022081;28;20045;-47
2022/07/07 01:44:37;;;;;;;1.90;1.77;;;22.30;51.50;;;;;;5024290;28;20038;-45
2022/07/07 01:47:11;;;;;;;3.30;1.50;;;22.30;51.60;;;;;;5019606;28;20034;-48
2022/07/07 01:49:39;;;;;;;2.70;1.98;;;22.30;51.70;;;;;;5004624;28;20045;-47
2022/07/07 01:52:06;;;;;;;1.90;1.70;;;22.30;51.80;;;;;;5021320;28;20405;-48
2022/07/07 01:54:34;;;;;;;1.90;1.63;;;22.20;51.80;;;;;;5023722;28;20115;-44
2022/07/07 01:57:08;;;;;;;3.50;1.85;;;22.20;51.80;;;;;;5023045;28;20049;-51
2022/07/07 01:59:37;;;;;;;1.63;1.52;;;22.20;51.90;;;;;;5022753;28;20056;-45
2022/07/07 02:02:07;;;;;;;2.70;1.92;;;22.30;52.10;;;;;;5021903;28;20551;-45
2022/07/07 02:04:34;;;;;;;4.32;2.03;;;22.20;52.20;;;;;;5030671;28;20045;-44
2022/07/07 02:07:01;;;;;;;1.70;1.60;;;22.20;52.30;;;;;;5014012;28;20092;-46
2022/07/07 02:09:35;;;;;;;3.55;1.95;;;22.20;52.30;;;;;;5006947;28;20049;-45
2022/07/07 02:12:02;;;;;;;4.40;1.67;;;22.20;52.50;;;;;;5019960;28;20042;-46
2022/07/07 02:14:29;;;;;;;1.70;1.60;;;22.20;52.50;;;;;;5032711;28;20056;-47
2022/07/07 02:17:00;;;;;;;2.20;1.88;;;22.20;52.60;;;;;;5019906;28;20531;-48
2022/07/07 02:19:26;;;;;;;3.05;1.50;;;22.20;52.80;;;;;;5024651;28;20042;-44
2022/07/07 02:21:56;;;;;;;2.10;1.75;;;22.20;52.70;;;;;;5030606;28;20045;-44
2022/07/07 02:24:22;;;;;;;1.75;1.65;;;22.20;52.80;;;;;;5016808;28;20045;-44
2022/07/07 02:26:51;;;;;;;1.70;1.60;;;22.20;52.90;;;;;;5011576;28;20042;-44
2022/07/07 02:29:19;;;;;;;2.40;1.73;;;22.20;53.00;;;;;;5021466;28;20038;-45
2022/07/07 02:31:48;;;;;;;4.75;2.53;;;22.20;53.20;;;;;;5029512;28;20049;-48
2022/07/07 02:34:20;;;;;;;3.13;1.88;;;22.10;53.50;;;;;;5025024;28;20050;-45
2022/07/07 02:36:53;;;;;;;2.17;1.77;;;22.10;53.20;;;;;;5024896;28;20045;-46
2022/07/07 02:39:22;;;;;;;2.15;1.80;;;22.10;53.50;;;;;;5018157;28;20050;-45
2022/07/07 02:41:49;;;;;;;4.03;2.10;;;22.10;53.40;;;;;;5033600;28;20559;-53
2022/07/07 02:44:15;;;;;;;2.42;1.65;;;22.10;53.40;;;;;;5019395;28;20077;-45
2022/07/07 02:46:46;;;;;;;2.72;2.20;;;22.10;53.50;;;;;;5012746;28;20397;-47
2022/07/07 02:49:16;;;;;;;2.97;2.17;;;22.10;53.60;;;;;;5023929;28;20070;-45
2022/07/07 02:51:43;;;;;;;2.10;1.90;;;22.10;53.60;;;;;;5016068;28;20493;-45
2022/07/07 02:54:17;;;;;;;2.22;2.03;;;22.10;53.80;;;;;;5018431;28;20046;-45
2022/07/07 02:56:46;;;;;;;3.38;2.15;;;22.10;54.00;;;;;;5021286;28;20049;-44
2022/07/07 02:59:22;;;;;;;4.25;2.08;;;22.10;53.90;;;;;;5024830;28;20046;-44
2022/07/07 03:01:52;;;;;;;2.17;1.95;;;22.10;54.30;;;;;;5033724;28;20103;-48
2022/07/07 03:04:21;;;;;;;2.35;1.98;;;22.10;54.00;;;;;;5017000;28;20069;-47
2022/07/07 03:06:47;;;;;;;1.92;1.80;;;22.10;54.20;;;;;;5024112;28;20037;-44
2022/07/07 03:09:14;;;;;;;3.22;2.13;;;22.10;54.30;;;;;;5025139;28;20045;-45
2022/07/07 03:11:49;;;;;;;2.70;1.95;;;22.10;55.10;;;;;;5028813;28;20397;-48
2022/07/07 03:14:18;;;;;;;3.67;2.20;;;22.20;54.50;;;;;;5019447;28;20451;-44
2022/07/07 03:16:49;;;;;;;3.72;2.05;;;22.10;54.60;;;;;;5007312;28;20057;-44
2022/07/07 03:19:16;;;;;;;3.08;1.98;;;22.10;55.00;;;;;;5033311;28;20046;-45
2022/07/07 03:21:48;;;;;;;2.78;1.63;;;22.10;54.80;;;;;;5028978;22;20061;-47
2022/07/07 03:24:15;;;;;;;2.88;1.77;;;22.10;55.10;;;;;;5027283;28;20052;-49
2022/07/07 03:26:41;;;;;;;2.08;1.90;;;22.10;55.30;;;;;;5040620;28;20056;-48
2022/07/07 03:29:13;;;;;;;4.82;1.88;;;22.10;55.50;;;;;;5052546;28;20056;-47
2022/07/07 03:31:40;;;;;;;3.08;2.05;;;22.10;55.50;;;;;;5046366;28;20057;-46
2022/07/07 03:34:11;;;;;;;3.15;2.30;;;22.00;56.30;;;;;;5039504;28;20493;-45
2022/07/07 03:36:38;;;;;;;3.85;2.38;;;22.00;55.70;;;;;;5027162;28;20064;-47
2022/07/07 03:39:05;;;;;;;2.45;1.70;;;22.00;55.70;;;;;;5053035;28;20041;-49
2022/07/07 03:41:34;;;;;;;4.78;2.35;;;22.00;55.80;;;;;;5041216;28;20051;-46
2022/07/07 03:44:01;;;;;;;2.08;1.90;;;22.10;56.10;;;;;;5046812;28;20088;-48
2022/07/07 03:46:28;;;;;;;2.30;2.10;;;22.00;55.90;;;;;;5045607;28;20048;-47
2022/07/07 03:48:57;;;;;;;2.15;1.98;;;22.00;56.00;;;;;;5052837;28;20071;-44
2022/07/07 03:51:26;;;;;;;2.83;2.15;;;22.00;56.10;;;;;;5038543;28;20045;-42
2022/07/07 03:53:55;;;;;;;2.00;1.80;;;22.00;56.20;;;;;;5044705;28;20042;-46
2022/07/07 03:56:22;;;;;;;3.20;1.95;;;22.00;56.20;;;;;;5012284;28;20042;-47
2022/07/07 03:58:51;;;;;;;3.83;2.00;;;22.00;56.30;;;;;;5026343;28;20504;-46
2022/07/07 04:01:20;;;;;;;4.72;1.98;;;22.00;56.30;;;;;;5026913;28;20112;-44
2022/07/07 04:03:50;;;;;;;2.42;2.10;;;22.00;56.30;;;;;;5042345;28;20060;-45
2022/07/07 04:06:20;;;;;;;2.50;1.70;;;22.00;56.30;;;;;;5052268;28;20044;-48
2022/07/07 04:08:50;;;;;;;3.33;1.70;;;21.90;56.60;;;;;;5038143;28;20045;-49
2022/07/07 04:11:17;;;;;;;1.85;1.42;;;21.90;56.40;;;;;;5036395;28;20068;-47
2022/07/07 04:13:49;;;;;;;3.58;1.83;;;21.90;56.50;;;;;;5044439;28;20052;-48
2022/07/07 04:16:16;;;;;;;3.80;2.30;;;21.90;56.50;;;;;;5047505;28;20125;-45
2022/07/07 04:18:44;;;;;;;2.75;2.33;;;21.90;56.50;;;;;;5027933;28;20034;-46
2022/07/07 04:21:13;;;;;;;3.42;2.28;;;21.90;56.50;;;;;;5038900;28;20052;-47
2022/07/07 04:23:40;;;;;;;6.38;2.55;;;22.00;56.60;;;;;;5044108;28;20043;-45
2022/07/07 04:26:18;;;;;;;4.60;2.10;;;21.90;56.70;;;;;;5052329;28;20044;-45
2022/07/07 04:28:45;;;;;;;3.33;2.17;;;21.90;56.60;;;;;;5039212;28;20058;-49
2022/07/07 04:31:16;;;;;;;2.92;2.05;;;21.90;56.60;;;;;;5042592;28;20041;-47
2022/07/07 04:33:46;;;;;;;3.40;1.95;;;21.90;56.90;;;;;;5052448;28;20041;-49
2022/07/07 04:36:16;;;;;;;1.65;1.55;;;21.90;56.80;;;;;;5047565;28;20061;-48
2022/07/07 04:38:45;;;;;;;2.53;2.00;;;21.90;57.30;;;;;;5026828;28;20053;-45
2022/07/07 04:41:12;;;;;;;2.30;1.75;;;21.90;57.40;;;;;;5040994;28;20041;-46
2022/07/07 04:43:41;;;;;;;3.25;1.73;;;21.90;57.50;;;;;;5046613;28;20043;-46
2022/07/07 04:46:11;;;;;;;2.75;1.63;;;21.90;57.60;;;;;;5051722;28;20513;-46
2022/07/07 04:48:43;;;;;;;2.42;2.22;;;21.90;57.60;;;;;;5018199;28;20049;-49
2022/07/07 04:51:10;;;;;;;2.53;1.70;;;21.90;57.60;;;;;;5042185;28;20058;-44
2022/07/07 04:53:37;;;;;;;3.08;2.10;;;21.80;57.60;;;;;;5052043;28;20478;-47
2022/07/07 04:56:06;;;;;;;2.45;2.25;;;21.90;57.70;;;;;;5034975;28;20049;-50
2022/07/07 04:58:33;;;;;;;4.15;2.47;;;21.80;58.20;;;;;;5041411;28;20158;-49
2022/07/07 05:01:00;;;;;;;4.20;2.50;;;21.80;59.20;;;;;;5027640;28;20073;-51
2022/07/07 05:03:27;;;;;;;2.47;2.22;;;21.70;61.20;;;;;;5041193;28;20083;-50
2022/07/07 05:05:55;;;;;;;3.20;1.70;;;21.50;61.10;;;;;;5024650;28;20104;-48
2022/07/07 05:08:22;;;;;;;1.90;1.80;;;21.40;61.80;;;;;;5030569;28;20049;-47
2022/07/07 05:10:48;;;;;;;3.45;1.67;;;21.20;62.40;;;;;;5030322;28;20050;-50
2022/07/07 05:13:15;;;;;;;3.83;1.88;;;21.10;63.10;;;;;;5033694;28;20037;-49
2022/07/07 05:15:42;;;;;;;1.90;1.80;;;20.80;63.60;;;;;;5029360;28;20167;-50
2022/07/07 05:18:09;;;;;;;1.70;1.60;;;20.70;64.00;;;;;;5033168;28;20566;-49
2022/07/07 05:20:36;;;;;;;1.65;1.40;;;20.60;64.50;;;;;;5031832;28;20084;-49
2022/07/07 05:23:02;;;;;;;2.35;2.03;;;20.40;65.00;;;;;;5028594;28;20048;-46
2022/07/07 05:25:29;;;;;;;1.90;1.80;;;20.30;65.20;;;;;;5032723;28;20096;-47
2022/07/07 05:27:56;;;;;;;1.63;1.52;;;20.30;65.70;;;;;;5036690;28;20091;-50
2022/07/07 05:30:22;;;;;;;2.20;2.00;;;20.20;65.90;;;;;;5042915;28;20470;-49
2022/07/07 05:32:49;;;;;;;2.85;2.00;;;20.10;66.10;;;;;;5030360;28;20067;-46
2022/07/07 05:35:16;;;;;;;2.03;1.85;;;20.10;66.30;;;;;;5027808;28;20171;-46
2022/07/07 05:37:43;;;;;;;1.63;1.40;;;20.10;66.50;;;;;;5029735;28;20038;-47
2022/07/07 05:40:10;;;;;;;2.78;2.17;;;20.10;66.90;;;;;;5027829;28;20492;-45
2022/07/07 05:42:37;;;;;;;2.42;1.83;;;20.10;67.10;;;;;;5029897;28;20045;-50
2022/07/07 05:45:04;;;;;;;2.47;1.73;;;20.10;67.40;;;;;;5043491;28;20590;-44
2022/07/07 05:47:32;;;;;;;5.22;2.78;;;20.00;67.30;;;;;;5043876;28;20056;-46
2022/07/07 05:49:59;;;;;;;4.88;2.38;;;20.10;67.40;;;;;;5038170;28;20045;-53
2022/07/07 05:52:26;;;;;;;3.47;2.00;;;20.10;67.60;;;;;;5030158;28;20048;-50
2022/07/07 05:54:56;;;;;;;1.92;1.67;;;20.10;67.40;;;;;;5031628;28;20069;-52
2022/07/07 05:57:24;;;;;;;2.85;1.77;;;20.20;67.10;;;;;;5038585;28;20049;-49
2022/07/07 05:59:51;;;;;;;2.05;1.85;;;20.20;66.90;;;;;;5030926;28;20045;-55
2022/07/07 06:02:18;;;;;;;2.15;1.67;;;20.20;66.60;;;;;;5026950;28;20110;-46
2022/07/07 06:04:44;;;;;;;1.65;1.42;;;20.20;66.70;;;;;;5039836;28;20056;-47
2022/07/07 06:07:11;;;;;;;1.63;1.52;;;20.30;66.90;;;;;;5042004;28;20052;-44
2022/07/07 06:09:38;;;;;;;3.65;1.95;;;20.30;66.90;;;;;;5050177;28;20045;-47
2022/07/07 06:12:05;;;;;;;1.88;1.40;;;20.30;66.80;;;;;;5032310;28;20470;-47
2022/07/07 06:14:34;;;;;;;1.90;1.27;;;20.30;67.00;;;;;;5043712;28;20038;-46
2022/07/07 06:17:01;;;;;;;1.75;1.40;;;20.30;67.00;;;;;;5047894;28;20450;-46
2022/07/07 06:19:28;;;;;;;1.65;1.30;;;20.30;67.00;;;;;;5050206;28;20420;-45
2022/07/07 06:21:55;;;;;;;3.05;1.83;;;20.40;66.80;;;;;;5031052;28;20110;-46
2022/07/07 06:24:22;;;;;;;1.85;1.30;;;20.40;66.70;;;;;;5042266;28;20053;-46
2022/07/07 06:26:49;;;;;;;1.45;1.33;;;20.40;66.80;;;;;;5050029;28;20041;-46
2022/07/07 06:29:17;;;;;;;1.75;1.30;;;20.50;66.90;;;;;;5050418;28;20159;-46
2022/07/07 06:31:43;;;;;;;1.52;1.20;;;20.50;67.10;;;;;;5029983;28;20045;-45
2022/07/07 06:34:10;;;;;;;1.50;1.05;;;20.50;67.30;;;;;;5040938;28;20092;-46
2022/07/07 06:36:37;;;;;;;1.80;1.20;;;20.60;67.30;;;;;;5049550;28;20477;-45
2022/07/07 06:39:03;;;;;;;1.00;1.00;;;20.60;66.80;;;;;;5031396;28;20080;-44
2022/07/07 06:41:37;;;;;;;4.10;1.15;;;20.60;66.70;;;;;;5041677;28;20056;-49
2022/07/07 06:44:05;;;;;;;1.80;0.93;;;20.70;67.00;;;;;;5048605;28;20037;-50
2022/07/07 06:46:32;;;;;;;2.63;1.00;;;20.70;66.80;;;;;;5033552;28;20670;-48
2022/07/07 06:48:59;;;;;;;2.13;1.40;;;20.70;66.60;;;;;;5026671;28;20052;-50
2022/07/07 06:51:26;;;;;;;1.27;0.90;;;20.80;66.50;;;;;;5038754;28;20095;-50
2022/07/07 06:53:53;;;;;;;0.85;0.85;;;20.80;66.40;;;;;;5042134;28;20049;-48
2022/07/07 06:56:23;;;;;;;4.03;1.25;;;20.90;66.30;;;;;;5034643;28;20128;-50
2022/07/07 06:58:49;;;;;;;3.03;1.13;;;20.90;66.00;;;;;;5024274;28;20042;-48
2022/07/07 07:01:16;;;;;;;1.92;1.02;;;21.00;65.50;;;;;;5047098;28;20041;-47
2022/07/07 07:03:43;;;;;;;1.23;0.77;;;21.00;65.30;;;;;;5031235;28;20052;-47
2022/07/07 07:06:10;;;;;;;2.33;0.82;;;21.00;65.20;;;;;;5053598;28;20411;-46
2022/07/07 07:08:37;;;;;;;2.03;0.80;;;21.00;64.60;;;;;;5029031;28;20037;-46
2022/07/07 07:11:04;;;;;;;1.00;0.50;;;21.10;64.80;;;;;;5042266;28;20048;-47
2022/07/07 07:13:31;;;;;;;1.77;0.90;;;21.10;64.50;;;;;;5033541;28;20088;-49
2022/07/07 07:15:58;;;;;;;1.90;0.50;;;21.20;64.30;;;;;;5030640;28;20054;-48
2022/07/07 07:18:25;;;;;;;1.02;0.40;;;21.10;63.20;;;;;;5035591;28;20038;-50
2022/07/07 07:20:52;;;;;;;1.88;0.35;;;21.10;62.30;;;;;;5035177;28;20044;-45
2022/07/07 07:23:19;;;;;;;6.10;0.60;;;21.10;61.50;;;;;;5033025;28;20092;-46
2022/07/07 07:25:46;;;;;;;2.92;0.88;;;21.10;61.60;;;;;;5030523;28;20048;-46
2022/07/07 07:28:12;;;;;;;3.88;0.93;;;21.10;61.80;;;;;;5043096;28;20378;-45
2022/07/07 07:30:39;;;;;;;2.42;0.85;;;21.10;61.60;;;;;;5041425;28;20045;-48
2022/07/07 07:33:06;;;;;;;4.05;0.90;;;21.10;61.50;;;;;;5015448;28;20041;-46
2022/07/07 07:35:32;;;;;;;2.30;0.73;;;21.10;61.60;;;;;;5031285;28;20103;-46
2022/07/07 07:38:01;;;;;;;4.90;1.13;;;21.10;61.40;;;;;;5034143;28;20068;-50
2022/07/07 07:40:28;;;;;;;2.83;0.98;;;21.10;62.10;;;;;;5032900;28;20096;-46
2022/07/07 07:42:55;;;;;;;2.10;1.20;;;21.20;62.10;;;;;;5032666;28;20038;-50
2022/07/07 07:45:22;;;;;;;2.50;1.00;;;21.20;62.00;;;;;;5031336;28;20100;-43
2022/07/07 07:47:48;;;;;;;2.85;0.70;;;21.20;62.10;;;;;;5036843;28;20103;-45
2022/07/07 07:50:20;;;;;;;3.65;0.90;;;21.20;62.10;;;;;;5036926;28;20037;-46
2022/07/07 07:52:48;;;;;;;3.55;0.88;;;21.20;62.40;;;;;;5032476;28;20049;-46
2022/07/07 07:55:18;;;;;;;2.22;0.90;;;21.20;61.60;;;;;;5030038;28;20042;-47
2022/07/07 07:57:47;;;;;;;2.42;0.80;;;21.30;61.40;;;;;;5040906;28;20103;-46
2022/07/07 08:00:18;;;;;;;3.67;1.33;;;21.30;61.40;;;;;;5052101;28;20041;-45
2022/07/07 08:02:47;;;;;;;2.75;1.15;;;21.30;61.00;;;;;;5035840;28;20085;-47
2022/07/07 08:05:15;;;;;;;5.07;1.30;;;21.40;60.90;;;;;;5034869;28;20108;-44
2022/07/07 08:07:45;;;;;;;1.85;0.90;;;21.30;61.50;;;;;;5035476;28;20053;-46
2022/07/07 08:10:14;;;;;;;8.25;2.33;;;21.30;62.20;;;;;;5051431;28;20041;-47
2022/07/07 08:12:41;;;;;;;4.90;1.30;;;21.20;62.40;;;;;;5033995;28;20045;-46
2022/07/07 08:15:09;;;;;;;2.65;1.13;;;21.00;62.50;;;;;;5027917;28;20044;-44
2022/07/07 08:17:36;;;;;;;6.57;1.20;;;20.90;62.80;;;;;;5045730;28;20045;-44
2022/07/07 08:20:05;;;;;;;4.72;1.15;;;20.70;62.70;;;;;;5044414;28;20068;-46
2022/07/07 08:22:32;;;;;;;4.07;1.10;;;20.60;63.30;;;;;;5035338;28;20042;-48
2022/07/07 08:24:58;;;;;;;2.45;1.00;;;20.50;63.60;;;;;;5034171;28;20046;-46
2022/07/07 08:27:25;;;;;;;4.30;0.85;;;20.40;64.00;;;;;;5043343;28;20101;-44
2022/07/07 08:29:52;;;;;;;4.20;1.08;;;20.30;64.30;;;;;;5042896;28;20048;-48
2022/07/07 08:32:19;;;;;;;3.25;1.42;;;20.40;65.00;;;;;;5031627;28;20064;-48
2022/07/07 08:34:46;;;;;;;3.40;0.88;;;20.30;65.10;;;;;;5044784;28;20065;-52
2022/07/07 08:37:14;;;;;;;2.13;0.85;;;20.30;65.70;;;;;;5043361;28;20044;-52
2022/07/07 08:39:41;;;;;;;4.43;1.05;;;20.40;66.40;;;;;;5034775;28;20041;-52
2022/07/07 08:42:08;;;;;;;4.40;0.98;;;20.40;65.90;;;;;;5029323;28;20042;-52
2022/07/07 08:44:35;;;;;;;3.25;1.23;;;20.40;65.60;;;;;;5038657;28;20049;-49
2022/07/07 08:47:02;;;;;;;3.00;1.00;;;20.50;65.50;;;;;;5017051;28;20064;-52
2022/07/07 08:49:30;;;;;;;3.47;0.88;;;20.50;65.60;;;;;;5032146;28;20110;-52
2022/07/07 08:51:57;;;;;;;2.70;1.10;;;20.50;65.70;;;;;;5031863;28;20038;-49
2022/07/07 08:54:26;;;;;;;4.07;1.23;;;20.60;65.50;;;;;;5043080;28;20045;-52
2022/07/07 08:56:56;;;;;;;4.30;1.03;;;20.60;65.30;;;;;;5029079;28;20051;-51
2022/07/07 08:59:22;;;;;;;1.45;0.70;;;20.70;65.30;;;;;;5030436;28;20776;-49
2022/07/07 09:01:56;;;;;;;3.33;1.23;;;20.90;65.60;;;;;;5035291;28;20115;-50
2022/07/07 09:04:23;;;;;;;1.92;0.70;;;21.10;64.30;;;;;;5037320;28;20056;-51
2022/07/07 09:06:59;;;;;;;1.92;1.25;;;21.30;64.10;;;;;;5033074;28;20068;-49
2022/07/07 09:09:43;;;;;;;1.40;0.50;;;21.40;61.70;;;;;;5028194;28;20042;-49
2022/07/07 09:12:12;;;;;;;1.20;0.40;;;21.60;61.00;;;;;;5035781;28;20107;-46
2022/07/07 09:14:44;;;;;;;2.58;0.50;;;21.60;61.00;;;;;;5043065;28;20044;-47
2022/07/07 09:17:24;;;;;;;1.00;0.80;;;21.70;60.40;;;;;;5011030;28;20505;-49
2022/07/07 09:20:12;;;;;;;1.55;0.40;;;21.80;59.50;;;;;;5033801;28;20536;-47
2022/07/07 09:22:43;;;;;;;1.35;0.30;;;21.90;59.30;;;;;;5034508;28;20042;-50
2022/07/07 09:25:10;;;;;;;1.75;0.40;;;21.90;58.00;;;;;;5032942;28;20040;-50
2022/07/07 09:27:50;;;;;;;2.17;0.50;;;22.00;57.80;;;;;;5027972;28;20048;-45
2022/07/07 09:30:43;;;;;;;2.22;0.63;;;22.10;58.10;;;;;;5033317;28;20087;-50
2022/07/07 09:38:34;;;;;;;3.22;0.98;;;22.20;57.30;;;;;;5007386;28;20046;-48
2022/07/07 09:41:08;;;;;;;2.80;1.30;;;22.30;57.50;;;;;;5010886;28;20045;-45
2022/07/07 09:43:38;;;;;;;1.50;0.60;;;22.30;57.20;;;;;;5011050;28;20099;-44
2022/07/07 09:46:16;;;;;;;0.88;0.40;;;22.30;57.20;;;;;;5009345;28;20050;-44
2022/07/07 09:48:47;;;;;;;1.15;0.32;;;22.30;56.60;;;;;;5009265;28;20044;-46
2022/07/07 09:51:33;;;;;;;0.50;0.40;;;22.20;56.60;;;;;;5010654;28;20042;-45
2022/07/07 09:54:11;;;;;;;1.20;0.63;;;22.10;56.80;;;;;;5011079;28;20042;-49
2022/07/07 09:56:42;;;;;;;1.88;0.22;;;22.10;56.70;;;;;;5008505;28;20038;-45
2022/07/07 09:59:15;;;;;;;2.90;0.70;;;22.00;56.90;;;;;;5009395;28;20078;-44
2022/07/07 10:01:44;;;;;;;3.55;0.45;;;21.90;57.30;;;;;;5010750;28;20053;-45
2022/07/07 10:04:22;;;;;;;0.77;0.40;;;21.90;57.70;;;;;;5010807;28;20097;-43
2022/07/07 10:06:50;;;;;;;0.80;0.50;;;21.90;58.50;;;;;;5004438;28;20521;-43
2022/07/07 10:09:21;;;;;;;2.55;0.57;;;21.90;58.40;;;;;;5009157;28;20045;-48
2022/07/07 10:11:53;;;;;;;2.85;0.50;;;22.00;57.80;;;;;;5008512;28;20054;-49
2022/07/07 10:14:22;;;;;;;0.63;0.43;;;22.10;57.60;;;;;;5006146;28;20042;-50
2022/07/07 10:16:54;;;;;;;1.77;0.77;;;22.10;57.30;;;;;;5001681;28;20120;-49
2022/07/07 10:19:23;;;;;;;1.80;0.40;;;22.20;56.70;;;;;;5008948;28;20053;-49
2022/07/07 10:21:52;;;;;;;1.40;0.70;;;22.30;56.60;;;;;;5008717;28;20442;-49
2022/07/07 10:24:22;;;;;;;3.20;0.70;;;22.40;56.30;;;;;;5003084;28;20064;-51
2022/07/07 10:26:50;;;;;;;1.55;0.52;;;22.40;56.00;;;;;;5006829;28;20068;-48
2022/07/07 10:29:36;;;;;;;1.65;0.40;;;22.50;55.60;;;;;;5008600;28;20537;-50
2022/07/07 10:32:03;;;;;;;2.08;0.60;;;22.60;55.60;;;;;;5006480;28;20046;-49
2022/07/07 10:34:33;;;;;;;1.58;0.55;;;22.60;55.50;;;;;;5002595;28;20038;-49
2022/07/07 10:37:05;;;;;;;1.15;0.60;;;22.80;55.20;;;;;;5012579;28;20049;-50
2022/07/07 10:39:40;;;;;;;2.50;0.70;;;22.80;54.80;;;;;;5012348;28;20050;-49
2022/07/07 10:42:15;;;;;;;2.15;0.70;;;22.70;54.50;;;;;;5011058;28;20045;-53
2022/07/07 10:44:47;;;;;;;3.80;0.73;;;22.70;54.10;;;;;;5010184;28;20046;-50
2022/07/07 10:47:16;;;;;;;1.77;0.68;;;22.70;54.30;;;;;;5013173;28;20497;-50
2022/07/07 10:49:47;;;;;;;3.88;0.90;;;22.60;54.50;;;;;;5012201;28;20362;-48
2022/07/07 10:52:18;;;;;;;1.98;0.80;;;22.60;54.30;;;;;;5006394;28;20054;-48
2022/07/07 10:54:53;;;;;;;1.70;0.75;;;22.50;54.40;;;;;;5006613;28;20053;-50
2022/07/07 10:57:23;;;;;;;2.90;1.45;;;22.50;54.80;;;;;;5012758;28;20081;-49
2022/07/07 11:00:06;;;;;;;1.20;0.80;;;22.40;55.00;;;;;;5010801;28;20042;-49
2022/07/07 11:02:47;;;;;;;2.55;0.60;;;22.30;55.40;;;;;;5010928;28;20065;-50
2022/07/07 11:05:14;;;;;;;2.60;0.60;;;22.20;55.50;;;;;;5011784;28;20399;-52
2022/07/07 11:08:08;;;;;;;2.85;1.05;;;22.20;55.60;;;;;;5013176;28;20038;-51
2022/07/07 11:10:52;;;;;;;3.95;1.23;;;22.10;55.90;;;;;;4987194;28;20078;-52
2022/07/07 11:13:30;;;;;;;2.72;0.85;;;22.10;56.00;;;;;;5009724;28;20093;-51
2022/07/07 11:16:06;;;;;;;2.88;1.17;;;22.10;56.20;;;;;;5003715;28;20038;-50
2022/07/07 11:18:34;;;;;;;1.83;0.50;;;22.20;56.60;;;;;;5009173;28;20084;-51
2022/07/07 11:21:03;;;;;;;3.08;0.60;;;22.30;56.60;;;;;;5012060;28;20080;-49
2022/07/07 11:23:44;;;;;;;3.85;1.20;;;22.40;56.30;;;;;;5012998;28;20060;-51
2022/07/07 11:26:16;;;;;;;2.38;0.93;;;22.50;55.90;;;;;;5006562;28;20078;-49
2022/07/07 11:28:49;;;;;;;3.30;0.52;;;22.60;55.50;;;;;;5012360;28;20498;-51
2022/07/07 11:31:16;;;;;;;0.82;0.45;;;22.60;55.00;;;;;;4999177;28;20045;-48
2022/07/07 11:33:53;;;;;;;2.17;0.95;;;22.70;54.60;;;;;;5010296;28;20091;-50
2022/07/07 11:36:31;;;;;;;1.05;0.82;;;22.60;54.40;;;;;;5010623;28;20108;-49
2022/07/07 11:39:02;;;;;;;2.00;0.65;;;22.60;54.30;;;;;;5010827;28;20069;-49
2022/07/07 11:41:43;;;;;;;1.15;0.60;;;22.50;54.60;;;;;;5010591;28;20405;-51
2022/07/07 11:44:21;;;;;;;3.28;0.70;;;22.40;55.10;;;;;;5002450;28;20034;-52
2022/07/07 11:46:52;;;;;;;2.10;0.90;;;22.30;55.70;;;;;;5007711;28;20053;-48
2022/07/07 11:49:20;;;;;;;3.85;0.95;;;22.20;56.70;;;;;;5007955;28;20030;-50
2022/07/07 11:51:48;;;;;;;2.33;0.82;;;22.10;57.50;;;;;;5014156;28;20046;-49
2022/07/07 11:54:15;;;;;;;6.00;1.98;;;22.10;58.10;;;;;;5011221;28;20489;-49
2022/07/07 11:56:42;;;;;;;1.42;0.50;;;22.20;58.70;;;;;;5007757;28;20425;-50
2022/07/07 11:59:09;;;;;;;2.00;0.57;;;22.30;59.00;;;;;;5010123;28;20046;-50
2022/07/07 12:01:38;;;;;;;1.80;0.40;;;22.50;58.40;;;;;;5004223;28;20349;-49
2022/07/07 12:04:16;;;;;;;3.10;1.02;;;22.60;57.70;;;;;;5011097;28;20038;-49
2022/07/07 12:06:44;;;;;;;1.45;0.30;;;22.80;56.80;;;;;;5009011;28;20072;-49
2022/07/07 12:09:11;;;;;;;0.73;0.50;;;22.90;56.30;;;;;;5009155;28;20038;-49
2022/07/07 12:11:39;;;;;;;2.92;0.43;;;23.00;56.10;;;;;;5007650;28;20049;-52
2022/07/07 12:14:08;;;;;;;2.90;0.60;;;23.00;55.60;;;;;;5013696;28;20139;-49
2022/07/07 12:16:41;;;;;;;3.20;0.43;;;23.00;55.50;;;;;;5007616;28;20045;-53
2022/07/07 12:19:09;;;;;;;1.88;0.73;;;23.00;55.80;;;;;;5010487;28;20129;-54
2022/07/07 12:21:45;;;;;;;2.60;0.80;;;22.90;56.00;;;;;;4992036;28;20034;-49
2022/07/07 12:24:17;;;;;;;2.15;0.45;;;22.80;56.20;;;;;;4992783;28;20246;-50
2022/07/07 12:26:49;;;;;;;0.98;0.60;;;22.60;56.80;;;;;;5006406;28;20041;-50
2022/07/07 12:29:20;;;;;;;1.85;0.55;;;22.60;57.10;;;;;;5010981;28;20092;-48
2022/07/07 12:31:49;;;;;;;1.48;0.80;;;22.60;57.70;;;;;;5011840;28;20539;-49
2022/07/07 12:34:22;;;;;;;0.57;0.30;;;22.60;57.30;;;;;;5011138;28;20429;-51
2022/07/07 12:36:49;;;;;;;0.93;0.47;;;22.80;58.10;;;;;;5006182;28;20046;-50
2022/07/07 12:39:19;;;;;;;2.00;1.10;;;22.90;57.80;;;;;;5011937;28;20045;-49
2022/07/07 12:41:52;;;;;;;0.98;0.60;;;23.10;57.90;;;;;;5011574;28;20042;-51
2022/07/07 12:44:29;;;;;;;1.48;0.80;;;23.30;57.70;;;;;;5011330;28;20038;-53
2022/07/07 12:47:16;;;;;;;1.45;0.80;;;23.60;57.10;;;;;;5007181;28;20068;-53
2022/07/07 12:49:56;;;;;;;2.60;1.02;;;23.90;56.30;;;;;;5011050;28;20042;-50
2022/07/07 12:52:23;;;;;;;1.40;0.47;;;24.10;54.60;;;;;;4994302;28;20057;-54
2022/07/07 12:54:55;;;;;;;1.55;0.73;;;24.20;54.40;;;;;;5007288;28;20089;-49
2022/07/07 12:57:27;;;;;;;1.23;0.73;;;24.30;54.10;;;;;;5014591;28;20046;-53
2022/07/07 12:59:55;;;;;;;1.15;0.60;;;24.30;53.60;;;;;;5023589;28;20107;-51
2022/07/07 13:02:22;;;;;;;2.75;1.02;;;24.20;53.30;;;;;;5013405;28;20533;-54
2022/07/07 13:04:49;;;;;;;0.88;0.70;;;24.10;53.20;;;;;;5003158;28;20053;-49
2022/07/07 13:07:16;;;;;;;1.00;0.60;;;23.90;53.30;;;;;;5011923;28;20049;-53